East Port Orchard, Washington
Current Conditions -  °F | °C
As of 10:15 PM on Monday 20 Oct 2014 (Local Time) from KPWT Reporting Station
Broken Clouds Broken Clouds  
Wind Chill: 12°   Ceiling: 1300
Heat Index: 12°   Visibility: 10mi
Dew Point: 12°   Wind: 7mph
Humidity: 100%   Direction: 240°WSW
Pressure: 29.81"   Gusts: NA
Location:  47.5378°N, 122.589°W
Report Text: KPWT 210515Z AUTO 24006KT 10SM SCT009 BKN013 BKN028 12/12 A2981 RMK AO1
Loading
Personal Weather Stations






























Interactive Weather Map
Tropical Storm Tracking
New forecast layout! Learn more

10-Day Weather Forecast

Advertisements
Track Severe Weather on mobile